sensor_id;sensor_type;location;lat;lon;timestamp;pressure;altitude;pressure_sealevel;temperature;humidity
58686;BME280;44465;53.206;-6.106;2023-02-18T00:01:26;101556.59;;;20.46;55.36
58686;BME280;44465;53.206;-6.106;2023-02-18T00:03:52;101540.13;;;20.35;55.34
58686;BME280;44465;53.206;-6.106;2023-02-18T00:06:20;101528.50;;;20.13;55.34
58686;BME280;44465;53.206;-6.106;2023-02-18T00:08:46;101550.31;;;20.25;55.41
58686;BME280;44465;53.206;-6.106;2023-02-18T00:11:13;101525.63;;;20.18;55.58
58686;BME280;44465;53.206;-6.106;2023-02-18T00:13:39;101539.81;;;20.20;55.57
58686;BME280;44465;53.206;-6.106;2023-02-18T00:16:07;101521.03;;;20.22;55.39
58686;BME280;44465;53.206;-6.106;2023-02-18T00:18:33;101498.72;;;20.01;55.62
58686;BME280;44465;53.206;-6.106;2023-02-18T00:20:58;101539.13;;;20.37;55.21
58686;BME280;44465;53.206;-6.106;2023-02-18T00:23:24;101538.03;;;20.43;55.34
58686;BME280;44465;53.206;-6.106;2023-02-18T00:26:02;101528.75;;;20.29;55.41
58686;BME280;44465;53.206;-6.106;2023-02-18T00:28:28;101522.81;;;20.43;55.45
58686;BME280;44465;53.206;-6.106;2023-02-18T00:30:53;101534.84;;;20.33;55.47
58686;BME280;44465;53.206;-6.106;2023-02-18T00:33:19;101489.88;;;20.21;55.50
58686;BME280;44465;53.206;-6.106;2023-02-18T00:35:45;101521.16;;;20.41;55.32
58686;BME280;44465;53.206;-6.106;2023-02-18T00:38:10;101517.94;;;20.33;55.03
58686;BME280;44465;53.206;-6.106;2023-02-18T00:40:37;101480.91;;;20.22;55.27
58686;BME280;44465;53.206;-6.106;2023-02-18T00:43:03;101507.69;;;20.42;55.61
58686;BME280;44465;53.206;-6.106;2023-02-18T00:45:30;101502.63;;;20.36;55.24
58686;BME280;44465;53.206;-6.106;2023-02-18T00:47:56;101430.16;;;19.98;55.33
58686;BME280;44465;53.206;-6.106;2023-02-18T00:50:21;101433.66;;;20.00;54.88
58686;BME280;44465;53.206;-6.106;2023-02-18T00:52:47;101431.78;;;20.02;55.25
58686;BME280;44465;53.206;-6.106;2023-02-18T00:55:12;101498.00;;;20.40;55.37
58686;BME280;44465;53.206;-6.106;2023-02-18T00:57:38;101491.00;;;20.37;55.24
58686;BME280;44465;53.206;-6.106;2023-02-18T01:00:05;101447.34;;;20.14;55.19
58686;BME280;44465;53.206;-6.106;2023-02-18T01:02:31;101487.22;;;20.41;54.80
58686;BME280;44465;53.206;-6.106;2023-02-18T01:04:57;101458.03;;;20.14;54.93
58686;BME280;44465;53.206;-6.106;2023-02-18T01:07:22;101422.84;;;20.03;55.17
58686;BME280;44465;53.206;-6.106;2023-02-18T01:09:48;101489.88;;;20.43;55.20
58686;BME280;44465;53.206;-6.106;2023-02-18T01:12:14;101490.72;;;20.43;54.89
58686;BME280;44465;53.206;-6.106;2023-02-18T01:14:40;101424.59;;;20.04;54.76
58686;BME280;44465;53.206;-6.106;2023-02-18T01:17:05;101490.09;;;20.37;54.88
58686;BME280;44465;53.206;-6.106;2023-02-18T01:19:31;101443.00;;;20.12;55.16
58686;BME280;44465;53.206;-6.106;2023-02-18T01:21:58;101473.31;;;20.33;55.32
58686;BME280;44465;53.206;-6.106;2023-02-18T01:24:24;101480.34;;;20.36;55.06
58686;BME280;44465;53.206;-6.106;2023-02-18T01:26:50;101439.34;;;20.13;55.14
58686;BME280;44465;53.206;-6.106;2023-02-18T01:29:15;101391.16;;;19.94;54.90
58686;BME280;44465;53.206;-6.106;2023-02-18T01:31:41;101469.72;;;20.34;55.32
58686;BME280;44465;53.206;-6.106;2023-02-18T01:34:06;101401.38;;;20.05;55.11
58686;BME280;44465;53.206;-6.106;2023-02-18T01:36:32;101456.66;;;20.26;55.13
58686;BME280;44465;53.206;-6.106;2023-02-18T01:38:57;101476.91;;;20.32;55.12
58686;BME280;44465;53.206;-6.106;2023-02-18T01:41:23;101437.50;;;20.15;54.96
58686;BME280;44465;53.206;-6.106;2023-02-18T01:44:10;101435.75;;;20.14;54.86
58686;BME280;44465;53.206;-6.106;2023-02-18T01:46:36;101408.34;;;20.09;55.28
58686;BME280;44465;53.206;-6.106;2023-02-18T01:49:01;101448.19;;;20.37;55.09
58686;BME280;44465;53.206;-6.106;2023-02-18T01:51:31;101404.56;;;20.14;54.92
58686;BME280;44465;53.206;-6.106;2023-02-18T01:54:21;101454.47;;;20.36;54.97
58686;BME280;44465;53.206;-6.106;2023-02-18T01:59:33;101455.78;;;20.26;55.13
58686;BME280;44465;53.206;-6.106;2023-02-18T02:02:01;101432.16;;;20.15;55.14
58686;BME280;44465;53.206;-6.106;2023-02-18T02:04:28;101406.25;;;19.95;55.05
58686;BME280;44465;53.206;-6.106;2023-02-18T02:06:54;101444.41;;;20.21;55.10
58686;BME280;44465;53.206;-6.106;2023-02-18T02:09:23;101408.47;;;20.06;55.26
58686;BME280;44465;53.206;-6.106;2023-02-18T02:17:48;101435.88;;;20.33;55.00
58686;BME280;44465;53.206;-6.106;2023-02-18T02:48:11;101441.59;;;20.24;55.22
58686;BME280;44465;53.206;-6.106;2023-02-18T02:50:50;101424.50;;;20.28;55.18
58686;BME280;44465;53.206;-6.106;2023-02-18T02:53:29;101413.97;;;20.23;54.99
58686;BME280;44465;53.206;-6.106;2023-02-18T02:55:55;101392.13;;;20.13;55.07
58686;BME280;44465;53.206;-6.106;2023-02-18T02:58:22;101389.44;;;20.13;55.10
58686;BME280;44465;53.206;-6.106;2023-02-18T03:14:41;101424.47;;;20.07;54.83
58686;BME280;44465;53.206;-6.106;2023-02-18T03:17:24;101429.09;;;20.24;54.95
58686;BME280;44465;53.206;-6.106;2023-02-18T03:19:57;101388.09;;;20.03;54.91
58686;BME280;44465;53.206;-6.106;2023-02-18T03:22:32;101430.91;;;20.24;54.76
58686;BME280;44465;53.206;-6.106;2023-02-18T03:25:00;101406.28;;;20.15;55.00
58686;BME280;44465;53.206;-6.106;2023-02-18T03:27:32;101373.28;;;19.94;54.90
58686;BME280;44465;53.206;-6.106;2023-02-18T03:30:04;101400.06;;;20.15;54.78
58686;BME280;44465;53.206;-6.106;2023-02-18T03:32:33;101450.44;;;20.26;54.82
58686;BME280;44465;53.206;-6.106;2023-02-18T03:35:12;101374.50;;;19.87;54.85
58686;BME280;44465;53.206;-6.106;2023-02-18T03:37:42;101402.06;;;20.10;54.65
58686;BME280;44465;53.206;-6.106;2023-02-18T03:40:10;101433.16;;;20.12;54.79
58686;BME280;44465;53.206;-6.106;2023-02-18T03:42:36;101400.75;;;19.98;54.76
58686;BME280;44465;53.206;-6.106;2023-02-18T03:45:02;101435.53;;;20.20;54.60
58686;BME280;44465;53.206;-6.106;2023-02-18T03:47:28;101439.00;;;20.22;54.50
58686;BME280;44465;53.206;-6.106;2023-02-18T03:49:53;101410.03;;;20.11;54.47
58686;BME280;44465;53.206;-6.106;2023-02-18T03:52:19;101435.03;;;20.10;54.82
58686;BME280;44465;53.206;-6.106;2023-02-18T03:54:44;101448.81;;;20.22;54.49
58686;BME280;44465;53.206;-6.106;2023-02-18T03:57:10;101419.47;;;19.98;54.50
58686;BME280;44465;53.206;-6.106;2023-02-18T03:59:35;101451.81;;;20.14;54.84
58686;BME280;44465;53.206;-6.106;2023-02-18T04:02:01;101471.97;;;20.23;54.56
58686;BME280;44465;53.206;-6.106;2023-02-18T04:04:28;101445.47;;;20.17;54.76
58686;BME280;44465;53.206;-6.106;2023-02-18T04:06:54;101471.03;;;20.24;54.43
58686;BME280;44465;53.206;-6.106;2023-02-18T04:09:19;101396.16;;;19.79;54.46
58686;BME280;44465;53.206;-6.106;2023-02-18T04:11:45;101451.13;;;20.09;54.41
58686;BME280;44465;53.206;-6.106;2023-02-18T04:14:12;101473.97;;;20.18;54.58
58686;BME280;44465;53.206;-6.106;2023-02-18T04:16:38;101484.66;;;20.18;54.87
58686;BME280;44465;53.206;-6.106;2023-02-18T04:19:04;101452.81;;;19.89;54.61
58686;BME280;44465;53.206;-6.106;2023-02-18T04:21:29;101464.06;;;19.97;54.51
58686;BME280;44465;53.206;-6.106;2023-02-18T04:23:55;101503.59;;;20.11;54.58
58686;BME280;44465;53.206;-6.106;2023-02-18T04:26:21;101496.47;;;20.12;54.45
58686;BME280;44465;53.206;-6.106;2023-02-18T04:28:47;101499.16;;;20.12;54.56
58686;BME280;44465;53.206;-6.106;2023-02-18T04:31:12;101513.38;;;20.12;54.47
58686;BME280;44465;53.206;-6.106;2023-02-18T04:33:38;101452.28;;;19.79;54.52
58686;BME280;44465;53.206;-6.106;2023-02-18T04:36:03;101485.53;;;19.96;54.40
58686;BME280;44465;53.206;-6.106;2023-02-18T04:38:29;101515.22;;;20.10;54.44
58686;BME280;44465;53.206;-6.106;2023-02-18T04:40:54;101522.44;;;20.08;54.48
58686;BME280;44465;53.206;-6.106;2023-02-18T04:43:20;101484.34;;;19.79;54.39
58686;BME280;44465;53.206;-6.106;2023-02-18T04:45:45;101472.47;;;19.88;54.63
58686;BME280;44465;53.206;-6.106;2023-02-18T04:48:11;101525.81;;;20.13;54.17
58686;BME280;44465;53.206;-6.106;2023-02-18T04:50:36;101524.63;;;20.21;54.46
58686;BME280;44465;53.206;-6.106;2023-02-18T04:53:02;101536.63;;;20.10;54.28
58686;BME280;44465;53.206;-6.106;2023-02-18T04:55:28;101494.69;;;19.89;54.14
58686;BME280;44465;53.206;-6.106;2023-02-18T04:57:53;101548.13;;;20.12;54.44
58686;BME280;44465;53.206;-6.106;2023-02-18T05:00:19;101550.88;;;20.11;54.45
58686;BME280;44465;53.206;-6.106;2023-02-18T05:02:45;101556.91;;;20.16;54.63
58686;BME280;44465;53.206;-6.106;2023-02-18T05:05:11;101556.16;;;20.12;54.44
58686;BME280;44465;53.206;-6.106;2023-02-18T05:07:37;101552.63;;;20.12;54.53
58686;BME280;44465;53.206;-6.106;2023-02-18T05:10:03;101564.00;;;20.17;54.35
58686;BME280;44465;53.206;-6.106;2023-02-18T05:12:29;101553.03;;;20.01;54.54
58686;BME280;44465;53.206;-6.106;2023-02-18T05:14:54;101558.66;;;20.17;54.43
58686;BME280;44465;53.206;-6.106;2023-02-18T05:17:19;101518.81;;;19.87;54.48
58686;BME280;44465;53.206;-6.106;2023-02-18T05:19:45;101571.69;;;20.03;54.59
58686;BME280;44465;53.206;-6.106;2023-02-18T05:22:11;101522.81;;;19.75;54.07
58686;BME280;44465;53.206;-6.106;2023-02-18T05:24:36;101585.47;;;20.15;54.55
58686;BME280;44465;53.206;-6.106;2023-02-18T05:27:02;101584.66;;;20.13;54.44
58686;BME280;44465;53.206;-6.106;2023-02-18T05:29:27;101576.25;;;20.01;54.33
58686;BME280;44465;53.206;-6.106;2023-02-18T05:31:53;101600.41;;;20.21;54.60
58686;BME280;44465;53.206;-6.106;2023-02-18T05:34:18;101542.94;;;19.86;54.66
58686;BME280;44465;53.206;-6.106;2023-02-18T05:36:44;101582.22;;;20.07;54.61
58686;BME280;44465;53.206;-6.106;2023-02-18T05:39:09;101598.75;;;20.17;54.52
58686;BME280;44465;53.206;-6.106;2023-02-18T05:41:35;101582.09;;;20.10;54.65
58686;BME280;44465;53.206;-6.106;2023-02-18T05:44:00;101550.13;;;19.83;54.67
58686;BME280;44465;53.206;-6.106;2023-02-18T05:46:44;101550.06;;;19.85;54.62
58686;BME280;44465;53.206;-6.106;2023-02-18T05:49:10;101548.06;;;19.92;54.43
58686;BME280;44465;53.206;-6.106;2023-02-18T05:51:36;101603.28;;;20.15;54.74
58686;BME280;44465;53.206;-6.106;2023-02-18T05:54:01;101584.28;;;20.23;54.72
58686;BME280;44465;53.206;-6.106;2023-02-18T05:56:27;101537.44;;;19.90;54.73
58686;BME280;44465;53.206;-6.106;2023-02-18T05:58:52;101595.22;;;20.17;54.49
58686;BME280;44465;53.206;-6.106;2023-02-18T06:01:18;101575.34;;;20.00;54.45
58686;BME280;44465;53.206;-6.106;2023-02-18T06:03:43;101614.41;;;20.28;54.69
58686;BME280;44465;53.206;-6.106;2023-02-18T06:06:09;101618.94;;;20.26;54.53
58686;BME280;44465;53.206;-6.106;2023-02-18T06:08:34;101583.25;;;20.03;54.57
58686;BME280;44465;53.206;-6.106;2023-02-18T06:11:00;101600.59;;;20.17;54.57
58686;BME280;44465;53.206;-6.106;2023-02-18T06:13:26;101627.94;;;20.23;54.49
58686;BME280;44465;53.206;-6.106;2023-02-18T06:15:52;101591.22;;;20.05;54.74
58686;BME280;44465;53.206;-6.106;2023-02-18T06:18:18;101618.47;;;20.14;54.73
58686;BME280;44465;53.206;-6.106;2023-02-18T06:20:46;101615.00;;;20.12;54.63
58686;BME280;44465;53.206;-6.106;2023-02-18T06:23:11;101637.19;;;20.14;54.72
58686;BME280;44465;53.206;-6.106;2023-02-18T06:25:36;101620.22;;;20.15;54.89
58686;BME280;44465;53.206;-6.106;2023-02-18T06:28:02;101618.84;;;20.05;54.99
58686;BME280;44465;53.206;-6.106;2023-02-18T06:30:27;101580.22;;;19.89;54.82
58686;BME280;44465;53.206;-6.106;2023-02-18T06:32:53;101603.75;;;20.03;54.60
58686;BME280;44465;53.206;-6.106;2023-02-18T06:35:18;101579.88;;;19.98;54.66
58686;BME280;44465;53.206;-6.106;2023-02-18T06:37:44;101588.03;;;19.95;54.92
58686;BME280;44465;53.206;-6.106;2023-02-18T06:40:10;101581.63;;;19.99;54.55
58686;BME280;44465;53.206;-6.106;2023-02-18T06:42:36;101612.88;;;20.21;54.47
58686;BME280;44465;53.206;-6.106;2023-02-18T06:45:02;101621.09;;;20.16;54.61
58686;BME280;44465;53.206;-6.106;2023-02-18T06:47:28;101590.34;;;20.04;54.58
58686;BME280;44465;53.206;-6.106;2023-02-18T06:49:54;101615.00;;;20.12;54.72
58686;BME280;44465;53.206;-6.106;2023-02-18T06:52:19;101641.47;;;20.19;54.31
58686;BME280;44465;53.206;-6.106;2023-02-18T06:54:45;101606.75;;;19.95;54.73
58686;BME280;44465;53.206;-6.106;2023-02-18T06:57:10;101621.53;;;20.04;54.80
58686;BME280;44465;53.206;-6.106;2023-02-18T06:59:36;101633.94;;;20.06;54.83
58686;BME280;44465;53.206;-6.106;2023-02-18T07:02:01;101597.47;;;19.80;54.84
58686;BME280;44465;53.206;-6.106;2023-02-18T07:04:27;101667.19;;;20.23;54.91
58686;BME280;44465;53.206;-6.106;2023-02-18T07:06:52;101653.13;;;20.18;54.67
58686;BME280;44465;53.206;-6.106;2023-02-18T07:09:18;101609.53;;;19.92;54.54
58686;BME280;44465;53.206;-6.106;2023-02-18T07:11:43;101646.25;;;20.10;54.55
58686;BME280;44465;53.206;-6.106;2023-02-18T07:14:09;101680.31;;;20.29;54.49
58686;BME280;44465;53.206;-6.106;2023-02-18T07:16:34;101614.19;;;19.85;54.72
58686;BME280;44465;53.206;-6.106;2023-02-18T07:18:59;101681.31;;;20.26;54.55
58686;BME280;44465;53.206;-6.106;2023-02-18T07:21:25;101663.00;;;20.15;54.65
58686;BME280;44465;53.206;-6.106;2023-02-18T07:23:51;101659.53;;;20.13;54.70
58686;BME280;44465;53.206;-6.106;2023-02-18T07:26:16;101651.13;;;19.99;54.45
58686;BME280;44465;53.206;-6.106;2023-02-18T07:28:42;101670.47;;;20.07;54.68
58686;BME280;44465;53.206;-6.106;2023-02-18T07:31:07;101705.47;;;20.25;54.64
58686;BME280;44465;53.206;-6.106;2023-02-18T07:33:33;101702.81;;;20.23;54.78
58686;BME280;44465;53.206;-6.106;2023-02-18T07:36:00;101694.28;;;20.13;54.84
58686;BME280;44465;53.206;-6.106;2023-02-18T07:38:26;101664.88;;;20.13;54.63
58686;BME280;44465;53.206;-6.106;2023-02-18T07:40:53;101663.75;;;19.95;54.78
58686;BME280;44465;53.206;-6.106;2023-02-18T07:43:19;101712.72;;;20.21;54.59
58686;BME280;44465;53.206;-6.106;2023-02-18T07:45:45;101665.22;;;20.04;54.56
58686;BME280;44465;53.206;-6.106;2023-02-18T07:48:12;101695.75;;;20.22;54.50
58686;BME280;44465;53.206;-6.106;2023-02-18T07:50:39;101697.19;;;20.07;54.54
58686;BME280;44465;53.206;-6.106;2023-02-18T07:53:06;101700.56;;;20.12;54.44
58686;BME280;44465;53.206;-6.106;2023-02-18T07:55:31;101646.28;;;19.85;54.66
58686;BME280;44465;53.206;-6.106;2023-02-18T08:00:41;101706.66;;;20.16;54.37
58686;BME280;44465;53.206;-6.106;2023-02-18T08:03:07;101702.59;;;20.06;54.50
58686;BME280;44465;53.206;-6.106;2023-02-18T08:05:32;101727.84;;;20.22;54.45
58686;BME280;44465;53.206;-6.106;2023-02-18T08:07:58;101734.06;;;20.23;54.62
58686;BME280;44465;53.206;-6.106;2023-02-18T08:10:23;101677.53;;;19.83;54.60
58686;BME280;44465;53.206;-6.106;2023-02-18T08:12:49;101717.88;;;20.02;54.46
58686;BME280;44465;53.206;-6.106;2023-02-18T08:15:14;101746.50;;;20.24;54.52
58686;BME280;44465;53.206;-6.106;2023-02-18T08:17:40;101729.22;;;20.09;54.96
58686;BME280;44465;53.206;-6.106;2023-02-18T08:20:06;101767.78;;;20.27;54.74
58686;BME280;44465;53.206;-6.106;2023-02-18T08:22:32;101749.28;;;20.21;54.52
58686;BME280;44465;53.206;-6.106;2023-02-18T08:24:57;101703.19;;;19.89;54.46
58686;BME280;44465;53.206;-6.106;2023-02-18T08:27:23;101762.38;;;20.28;54.72
58686;BME280;44465;53.206;-6.106;2023-02-18T08:29:49;101730.78;;;20.14;54.55
58686;BME280;44465;53.206;-6.106;2023-02-18T08:32:15;101707.59;;;19.91;54.55
58686;BME280;44465;53.206;-6.106;2023-02-18T08:34:40;101713.69;;;19.95;54.44
58686;BME280;44465;53.206;-6.106;2023-02-18T08:37:05;101766.81;;;20.29;54.85
58686;BME280;44465;53.206;-6.106;2023-02-18T08:39:34;101739.66;;;20.17;54.71
58686;BME280;44465;53.206;-6.106;2023-02-18T08:42:00;101729.28;;;20.07;54.64
58686;BME280;44465;53.206;-6.106;2023-02-18T08:44:26;101748.41;;;20.20;54.95
58686;BME280;44465;53.206;-6.106;2023-02-18T08:46:52;101755.56;;;20.20;54.74
58686;BME280;44465;53.206;-6.106;2023-02-18T08:49:17;101769.66;;;20.25;54.83
58686;BME280;44465;53.206;-6.106;2023-02-18T08:51:47;101773.34;;;20.21;54.77
58686;BME280;44465;53.206;-6.106;2023-02-18T08:54:13;101775.84;;;20.25;54.81
58686;BME280;44465;53.206;-6.106;2023-02-18T08:56:39;101765.38;;;20.19;54.79
58686;BME280;44465;53.206;-6.106;2023-02-18T08:59:05;101768.16;;;20.16;54.55
58686;BME280;44465;53.206;-6.106;2023-02-18T09:01:30;101780.19;;;20.29;54.64
58686;BME280;44465;53.206;-6.106;2023-02-18T09:03:56;101784.59;;;20.30;54.60
58686;BME280;44465;53.206;-6.106;2023-02-18T09:06:22;101791.72;;;20.30;54.65
58686;BME280;44465;53.206;-6.106;2023-02-18T09:08:47;101776.25;;;20.14;54.42
58686;BME280;44465;53.206;-6.106;2023-02-18T09:11:13;101780.34;;;20.25;54.40
58686;BME280;44465;53.206;-6.106;2023-02-18T09:13:39;101787.53;;;20.23;54.56
58686;BME280;44465;53.206;-6.106;2023-02-18T09:16:10;101803.25;;;20.32;54.62
58686;BME280;44465;53.206;-6.106;2023-02-18T09:18:36;101789.38;;;20.22;54.67
58686;BME280;44465;53.206;-6.106;2023-02-18T09:21:03;101790.31;;;20.20;54.72
58686;BME280;44465;53.206;-6.106;2023-02-18T09:23:30;101811.50;;;20.26;54.56
58686;BME280;44465;53.206;-6.106;2023-02-18T09:25:56;101806.16;;;20.26;54.78
58686;BME280;44465;53.206;-6.106;2023-02-18T09:28:23;101818.44;;;20.32;54.58
58686;BME280;44465;53.206;-6.106;2023-02-18T09:30:48;101812.22;;;20.31;54.74
58686;BME280;44465;53.206;-6.106;2023-02-18T09:33:14;101767.91;;;19.98;54.67
58686;BME280;44465;53.206;-6.106;2023-02-18T09:35:41;101792.47;;;20.10;54.89
58686;BME280;44465;53.206;-6.106;2023-02-18T09:38:09;101821.28;;;20.27;54.92
58686;BME280;44465;53.206;-6.106;2023-02-18T09:40:38;101774.03;;;20.02;54.66
58686;BME280;44465;53.206;-6.106;2023-02-18T09:43:22;101764.47;;;19.95;54.66
58686;BME280;44465;53.206;-6.106;2023-02-18T09:45:52;101816.53;;;20.35;54.67
58686;BME280;44465;53.206;-6.106;2023-02-18T09:48:20;101815.59;;;20.36;54.69
58686;BME280;44465;53.206;-6.106;2023-02-18T09:50:51;101819.31;;;20.32;54.87
58686;BME280;44465;53.206;-6.106;2023-02-18T09:53:17;101819.19;;;20.35;55.20
58686;BME280;44465;53.206;-6.106;2023-02-18T09:55:43;101796.81;;;20.38;54.77
58686;BME280;44465;53.206;-6.106;2023-02-18T09:58:15;101835.78;;;20.45;55.53
58686;BME280;44465;53.206;-6.106;2023-02-18T10:00:44;101829.66;;;20.41;55.49
58686;BME280;44465;53.206;-6.106;2023-02-18T10:03:23;101831.66;;;20.36;55.62
58686;BME280;44465;53.206;-6.106;2023-02-18T10:06:03;101818.47;;;20.30;55.55
58686;BME280;44465;53.206;-6.106;2023-02-18T10:08:36;101816.63;;;20.32;55.25
58686;BME280;44465;53.206;-6.106;2023-02-18T10:11:03;101817.44;;;20.34;55.44
58686;BME280;44465;53.206;-6.106;2023-02-18T10:13:31;101813.97;;;20.32;55.40
58686;BME280;44465;53.206;-6.106;2023-02-18T10:15:58;101829.63;;;20.43;55.38
58686;BME280;44465;53.206;-6.106;2023-02-18T10:18:25;101836.66;;;20.45;55.46
58686;BME280;44465;53.206;-6.106;2023-02-18T10:20:56;101833.94;;;20.47;55.49
58686;BME280;44465;53.206;-6.106;2023-02-18T10:23:23;101827.00;;;20.41;55.46
58686;BME280;44465;53.206;-6.106;2023-02-18T10:25:50;101833.81;;;20.50;55.34
58686;BME280;44465;53.206;-6.106;2023-02-18T10:28:18;101836.56;;;20.49;55.42
58686;BME280;44465;53.206;-6.106;2023-02-18T10:30:54;101810.28;;;20.35;55.43
58686;BME280;44465;53.206;-6.106;2023-02-18T10:33:46;101822.69;;;20.37;55.43
58686;BME280;44465;53.206;-6.106;2023-02-18T10:36:41;101814.63;;;20.39;55.35
58686;BME280;44465;53.206;-6.106;2023-02-18T10:45:22;101841.03;;;20.48;55.31
58686;BME280;44465;53.206;-6.106;2023-02-18T10:48:24;101824.91;;;20.50;55.48
58686;BME280;44465;53.206;-6.106;2023-02-18T10:50:54;101808.25;;;20.41;55.49
58686;BME280;44465;53.206;-6.106;2023-02-18T10:53:33;101802.56;;;20.51;55.55
58686;BME280;44465;53.206;-6.106;2023-02-18T10:56:00;101799.91;;;20.51;55.55
58686;BME280;44465;53.206;-6.106;2023-02-18T11:00:54;101788.34;;;20.50;55.56
58686;BME280;44465;53.206;-6.106;2023-02-18T11:03:48;101801.59;;;20.53;55.50
58686;BME280;44465;53.206;-6.106;2023-02-18T11:06:20;101808.69;;;20.54;55.37
58686;BME280;44465;53.206;-6.106;2023-02-18T11:08:49;101814.09;;;20.53;55.62
58686;BME280;44465;53.206;-6.106;2023-02-18T11:11:20;101813.00;;;20.58;55.50
58686;BME280;44465;53.206;-6.106;2023-02-18T11:13:56;101806.13;;;20.51;55.21
58686;BME280;44465;53.206;-6.106;2023-02-18T11:16:23;101828.22;;;20.56;55.68
58686;BME280;44465;53.206;-6.106;2023-02-18T11:19:00;101811.31;;;20.56;55.71
58686;BME280;44465;53.206;-6.106;2023-02-18T11:21:35;101795.59;;;20.46;55.78
58686;BME280;44465;53.206;-6.106;2023-02-18T11:24:13;101809.50;;;20.56;55.56
58686;BME280;44465;53.206;-6.106;2023-02-18T11:26:39;101805.97;;;20.56;55.85
58686;BME280;44465;53.206;-6.106;2023-02-18T11:29:35;101812.13;;;20.58;55.46
58686;BME280;44465;53.206;-6.106;2023-02-18T11:32:01;101808.41;;;20.62;55.62
58686;BME280;44465;53.206;-6.106;2023-02-18T11:34:29;101796.09;;;20.58;55.67
58686;BME280;44465;53.206;-6.106;2023-02-18T11:37:07;101798.63;;;20.61;55.60
58686;BME280;44465;53.206;-6.106;2023-02-18T11:39:33;101792.63;;;20.54;55.86
58686;BME280;44465;53.206;-6.106;2023-02-18T11:42:04;101777.69;;;20.49;55.51
58686;BME280;44465;53.206;-6.106;2023-02-18T11:44:35;101755.00;;;20.35;55.60
58686;BME280;44465;53.206;-6.106;2023-02-18T11:49:30;101803.69;;;20.69;55.64
58686;BME280;44465;53.206;-6.106;2023-02-18T11:52:18;101779.41;;;20.50;55.29
58686;BME280;44465;53.206;-6.106;2023-02-18T11:57:26;101814.31;;;20.70;55.55
58686;BME280;44465;53.206;-6.106;2023-02-18T11:59:52;101795.94;;;20.61;55.55
58686;BME280;44465;53.206;-6.106;2023-02-18T12:02:29;101795.16;;;20.59;55.61
58686;BME280;44465;53.206;-6.106;2023-02-18T12:05:04;101793.28;;;20.61;55.45
58686;BME280;44465;53.206;-6.106;2023-02-18T12:07:47;101809.94;;;20.69;55.69
58686;BME280;44465;53.206;-6.106;2023-02-18T12:10:32;101813.56;;;20.67;55.50
58686;BME280;44465;53.206;-6.106;2023-02-18T12:18:24;101809.56;;;20.55;55.62
58686;BME280;44465;53.206;-6.106;2023-02-18T12:21:05;101818.06;;;20.66;55.54
58686;BME280;44465;53.206;-6.106;2023-02-18T12:23:50;101827.72;;;20.70;55.48
58686;BME280;44465;53.206;-6.106;2023-02-18T12:29:32;101755.34;;;20.26;55.53
58686;BME280;44465;53.206;-6.106;2023-02-18T12:35:18;101818.06;;;20.66;55.45
58686;BME280;44465;53.206;-6.106;2023-02-18T12:40:50;101822.50;;;20.67;55.67
58686;BME280;44465;53.206;-6.106;2023-02-18T12:49:08;101810.78;;;20.70;55.35
58686;BME280;44465;53.206;-6.106;2023-02-18T12:57:24;101799.22;;;20.69;55.54
58686;BME280;44465;53.206;-6.106;2023-02-18T13:11:14;101782.47;;;20.64;55.56
58686;BME280;44465;53.206;-6.106;2023-02-18T13:13:49;101789.44;;;20.68;55.55
58686;BME280;44465;53.206;-6.106;2023-02-18T13:16:18;101746.91;;;20.37;55.44
58686;BME280;44465;53.206;-6.106;2023-02-18T13:21:30;101720.56;;;20.26;55.52
58686;BME280;44465;53.206;-6.106;2023-02-18T13:24:06;101778.97;;;20.62;55.60
58686;BME280;44465;53.206;-6.106;2023-02-18T13:26:34;101736.00;;;20.43;55.74
58686;BME280;44465;53.206;-6.106;2023-02-18T13:34:57;101721.25;;;20.31;55.36
58686;BME280;44465;53.206;-6.106;2023-02-18T13:40:44;101757.69;;;20.59;55.37
58686;BME280;44465;53.206;-6.106;2023-02-18T13:43:36;101772.59;;;20.65;55.37
58686;BME280;44465;53.206;-6.106;2023-02-18T13:46:16;101771.06;;;20.59;55.67
58686;BME280;44465;53.206;-6.106;2023-02-18T13:48:44;101762.78;;;20.65;55.44
58686;BME280;44465;53.206;-6.106;2023-02-18T13:51:11;101763.16;;;20.56;55.66
58686;BME280;44465;53.206;-6.106;2023-02-18T13:53:42;101745.59;;;20.49;55.75
58686;BME280;44465;53.206;-6.106;2023-02-18T13:56:26;101694.69;;;20.26;55.47
58686;BME280;44465;53.206;-6.106;2023-02-18T13:59:19;101714.16;;;20.30;55.15
58686;BME280;44465;53.206;-6.106;2023-02-18T14:01:49;101733.34;;;20.41;55.63
58686;BME280;44465;53.206;-6.106;2023-02-18T14:07:36;101772.78;;;20.60;55.35
58686;BME280;44465;53.206;-6.106;2023-02-18T14:12:37;101768.03;;;20.68;55.36
58686;BME280;44465;53.206;-6.106;2023-02-18T14:18:08;101759.19;;;20.66;55.37
58686;BME280;44465;53.206;-6.106;2023-02-18T14:20:47;101752.16;;;20.64;55.37
58686;BME280;44465;53.206;-6.106;2023-02-18T14:36:58;101683.09;;;20.50;55.27
58686;BME280;44465;53.206;-6.106;2023-02-18T14:45:18;101687.84;;;20.65;55.42
58686;BME280;44465;53.206;-6.106;2023-02-18T14:50:20;101667.09;;;20.48;55.26
58686;BME280;44465;53.206;-6.106;2023-02-18T14:52:58;101663.22;;;20.57;55.69
58686;BME280;44465;53.206;-6.106;2023-02-18T14:55:32;101655.47;;;20.49;55.28
58686;BME280;44465;53.206;-6.106;2023-02-18T14:58:02;101706.66;;;20.64;55.52
58686;BME280;44465;53.206;-6.106;2023-02-18T15:00:33;101655.78;;;20.41;55.61
58686;BME280;44465;53.206;-6.106;2023-02-18T15:03:00;101701.25;;;20.65;55.66
58686;BME280;44465;53.206;-6.106;2023-02-18T15:05:31;101644.88;;;20.24;55.41
58686;BME280;44465;53.206;-6.106;2023-02-18T15:08:04;101707.41;;;20.67;55.61
58686;BME280;44465;53.206;-6.106;2023-02-18T15:13:24;101723.94;;;20.79;55.60
58686;BME280;44465;53.206;-6.106;2023-02-18T15:15:53;101690.41;;;20.68;55.62
58686;BME280;44465;53.206;-6.106;2023-02-18T15:18:27;101679.13;;;20.60;55.69